Time;durP1;ratioP1;P1;durP2;ratioP2;P2;SDS_P1;SDS_P2;PMS_P1;PMS_P2;Temp;Humidity;BMP_temperature;BMP_pressure;BME280_temperature;BME280_humidity;BME280_pressure;Samples;Min_cycle;Max_cycle;Signal;HPM_P1;HPM_P2
2021/11/16 00:00:41;;;;;;;33.42;19.55;;;9.40;99.90;;;;;;5035308;28;20212;-69
2021/11/16 00:03:10;;;;;;;32.05;19.63;;;9.40;99.90;;;;;;5035624;28;20642;-69
2021/11/16 00:05:38;;;;;;;30.23;19.88;;;9.30;99.90;;;;;;5034899;28;20200;-69
2021/11/16 00:08:07;;;;;;;31.65;19.85;;;9.30;99.90;;;;;;5035224;28;20224;-69
2021/11/16 00:10:35;;;;;;;31.45;20.25;;;9.30;99.90;;;;;;5034123;28;20204;-68
2021/11/16 00:13:02;;;;;;;29.77;20.33;;;9.40;99.90;;;;;;5035503;28;20207;-68
2021/11/16 00:15:28;;;;;;;33.38;20.85;;;9.50;99.90;;;;;;5034794;28;20555;-70
2021/11/16 00:17:55;;;;;;;30.38;19.10;;;9.50;99.90;;;;;;5035118;28;20232;-69
2021/11/16 00:20:24;;;;;;;31.60;20.90;;;9.60;99.90;;;;;;5034997;28;20232;-69
2021/11/16 00:22:51;;;;;;;32.53;20.40;;;9.50;99.90;;;;;;5034989;28;20780;-69
2021/11/16 00:25:22;;;;;;;31.08;20.25;;;9.40;99.90;;;;;;5034873;28;20547;-69
2021/11/16 00:27:50;;;;;;;33.72;19.35;;;9.40;99.90;;;;;;5035331;28;20262;-69
2021/11/16 00:30:18;;;;;;;34.35;20.98;;;9.40;99.90;;;;;;5034957;28;20247;-70
2021/11/16 00:32:45;;;;;;;29.40;20.52;;;9.40;99.90;;;;;;5035146;28;20223;-69
2021/11/16 00:35:12;;;;;;;32.70;20.00;;;9.40;99.90;;;;;;5034616;28;20243;-68
2021/11/16 00:37:41;;;;;;;32.30;19.42;;;9.40;99.90;;;;;;5034729;28;20311;-69
2021/11/16 00:40:11;;;;;;;32.17;20.50;;;9.40;99.90;;;;;;5034855;28;20204;-68
2021/11/16 00:42:38;;;;;;;34.13;21.02;;;9.30;99.90;;;;;;5034790;28;20299;-70
2021/11/16 00:45:06;;;;;;;28.42;18.60;;;9.30;99.90;;;;;;5034465;28;20204;-69
2021/11/16 00:47:33;;;;;;;29.95;19.10;;;9.40;99.90;;;;;;5034586;28;20235;-69
2021/11/16 00:50:00;;;;;;;29.90;18.88;;;9.40;99.90;;;;;;5034293;28;20210;-69
2021/11/16 00:52:27;;;;;;;32.40;19.10;;;9.40;99.90;;;;;;5034622;28;20548;-69
2021/11/16 00:54:56;;;;;;;32.05;19.88;;;9.40;99.90;;;;;;5034349;28;20287;-70
2021/11/16 00:57:23;;;;;;;29.75;18.48;;;9.40;99.90;;;;;;5034395;28;20747;-70
2021/11/16 00:59:50;;;;;;;35.95;20.58;;;9.40;99.90;;;;;;5034436;28;20204;-71
2021/11/16 01:02:17;;;;;;;29.67;19.05;;;9.40;99.90;;;;;;5034303;28;20295;-71
2021/11/16 01:04:48;;;;;;;31.85;20.10;;;9.40;99.90;;;;;;5034129;28;20258;-70
2021/11/16 01:07:16;;;;;;;29.58;18.25;;;9.40;99.90;;;;;;5034223;28;20224;-70
2021/11/16 01:09:44;;;;;;;33.70;19.63;;;9.40;99.90;;;;;;5034422;28;20208;-69
2021/11/16 01:12:13;;;;;;;31.02;19.35;;;9.40;99.90;;;;;;5034026;28;20215;-69
2021/11/16 01:14:41;;;;;;;33.25;20.27;;;9.40;99.90;;;;;;5034365;28;20200;-69
2021/11/16 01:17:08;;;;;;;30.92;19.50;;;9.50;99.90;;;;;;5033712;28;20235;-69
2021/11/16 01:19:35;;;;;;;30.15;19.83;;;9.40;99.90;;;;;;5034013;28;20214;-69
2021/11/16 01:22:04;;;;;;;32.00;19.50;;;9.40;99.90;;;;;;5034020;28;20204;-69
2021/11/16 01:24:31;;;;;;;29.23;18.70;;;9.40;99.90;;;;;;5033602;28;20224;-70
2021/11/16 01:26:58;;;;;;;27.23;18.10;;;9.40;99.90;;;;;;5033711;28;20200;-70
2021/11/16 01:29:27;;;;;;;31.35;19.05;;;9.40;99.90;;;;;;5033779;28;20242;-70
2021/11/16 01:31:56;;;;;;;29.67;19.27;;;9.40;99.90;;;;;;5033947;28;20200;-70
2021/11/16 01:34:27;;;;;;;30.45;19.90;;;9.40;99.90;;;;;;5033946;28;20196;-70
2021/11/16 01:36:55;;;;;;;30.88;19.33;;;9.30;99.90;;;;;;5033885;28;20204;-72
2021/11/16 01:39:22;;;;;;;31.35;19.33;;;9.40;99.90;;;;;;5033743;28;20667;-71
2021/11/16 01:41:49;;;;;;;31.73;20.17;;;9.40;99.90;;;;;;5033839;28;20570;-71
2021/11/16 01:44:16;;;;;;;27.98;19.20;;;9.30;99.90;;;;;;5034288;28;20227;-70
2021/11/16 01:46:45;;;;;;;33.65;19.63;;;9.30;99.90;;;;;;5034153;28;20633;-70
2021/11/16 01:49:13;;;;;;;32.70;20.10;;;9.30;99.90;;;;;;5034704;28;20624;-71
2021/11/16 01:51:40;;;;;;;31.85;19.98;;;9.20;99.90;;;;;;5035468;28;20205;-69
2021/11/16 01:54:07;;;;;;;31.85;19.00;;;9.20;99.90;;;;;;5034674;28;20211;-68
2021/11/16 01:56:38;;;;;;;31.98;20.55;;;9.20;99.90;;;;;;5034021;28;20231;-71
2021/11/16 01:59:06;;;;;;;30.90;19.30;;;9.20;99.90;;;;;;5033305;28;20785;-70
2021/11/16 02:01:34;;;;;;;32.08;20.15;;;9.20;99.90;;;;;;5033300;28;20298;-71
2021/11/16 02:04:04;;;;;;;31.90;19.55;;;9.20;99.90;;;;;;5033951;28;20224;-71
2021/11/16 02:06:35;;;;;;;27.73;19.08;;;9.10;99.90;;;;;;5033273;28;20270;-71
2021/11/16 02:09:06;;;;;;;30.90;19.13;;;9.10;99.90;;;;;;5033206;28;20273;-72
2021/11/16 02:11:33;;;;;;;30.20;18.77;;;9.10;99.90;;;;;;5033671;28;20258;-71
2021/11/16 02:14:00;;;;;;;30.38;18.60;;;9.10;99.90;;;;;;5034479;28;20287;-70
2021/11/16 02:16:28;;;;;;;25.85;17.90;;;9.10;99.90;;;;;;5033180;28;20298;-69
2021/11/16 02:18:55;;;;;;;25.98;17.90;;;9.20;99.90;;;;;;5033958;28;20228;-70
2021/11/16 02:21:24;;;;;;;29.52;18.58;;;9.20;99.90;;;;;;5033469;28;20210;-70
2021/11/16 02:23:51;;;;;;;30.33;19.02;;;9.30;99.90;;;;;;5033253;28;20224;-69
2021/11/16 02:26:18;;;;;;;26.08;17.30;;;9.30;99.90;;;;;;5033376;28;20250;-70
2021/11/16 02:28:46;;;;;;;28.98;17.17;;;9.30;99.90;;;;;;5032927;28;20421;-69
2021/11/16 02:31:14;;;;;;;25.42;17.10;;;9.30;99.90;;;;;;5032755;28;20257;-71
2021/11/16 02:33:41;;;;;;;25.70;16.70;;;9.30;99.90;;;;;;5032837;28;20222;-71
2021/11/16 02:36:08;;;;;;;29.48;17.20;;;9.30;99.90;;;;;;5033011;28;20210;-72
2021/11/16 02:38:37;;;;;;;25.45;16.50;;;9.20;99.90;;;;;;5032529;28;20740;-71
2021/11/16 02:41:05;;;;;;;29.70;17.60;;;9.30;99.90;;;;;;5032683;28;20208;-71
2021/11/16 02:43:33;;;;;;;26.75;16.55;;;9.30;99.90;;;;;;5032551;28;20224;-70
2021/11/16 02:46:02;;;;;;;23.80;16.05;;;9.30;99.90;;;;;;5032259;28;20208;-69
2021/11/16 02:48:29;;;;;;;26.00;16.95;;;9.30;99.90;;;;;;5032335;28;20220;-70
2021/11/16 02:50:58;;;;;;;29.60;17.65;;;9.30;99.90;;;;;;5032940;28;20216;-70
2021/11/16 02:53:25;;;;;;;29.02;18.10;;;9.20;99.90;;;;;;5033720;28;20243;-70
2021/11/16 02:55:54;;;;;;;26.55;16.95;;;9.30;99.90;;;;;;5033766;28;20245;-69
2021/11/16 02:58:24;;;;;;;32.08;17.48;;;9.20;99.90;;;;;;5034273;28;20260;-68
2021/11/16 03:00:54;;;;;;;27.25;17.05;;;9.20;99.90;;;;;;5033832;28;20211;-70
2021/11/16 03:03:22;;;;;;;24.15;16.25;;;9.20;99.90;;;;;;5033594;28;20510;-70
2021/11/16 03:05:50;;;;;;;27.70;17.42;;;9.20;99.90;;;;;;5033387;28;20211;-70
2021/11/16 03:08:21;;;;;;;25.88;16.80;;;9.20;99.90;;;;;;5034218;28;20224;-70
2021/11/16 03:10:49;;;;;;;26.25;17.20;;;9.20;99.90;;;;;;5034107;28;20215;-72
2021/11/16 03:13:19;;;;;;;28.02;17.48;;;9.10;99.90;;;;;;5033779;28;20212;-70
2021/11/16 03:15:47;;;;;;;26.35;16.88;;;9.10;99.90;;;;;;5032740;28;20216;-70
2021/11/16 03:18:14;;;;;;;27.05;17.95;;;9.10;99.90;;;;;;5032885;28;20263;-70
2021/11/16 03:20:41;;;;;;;27.38;17.30;;;9.10;99.90;;;;;;5032145;28;20674;-71
2021/11/16 03:23:12;;;;;;;23.50;16.60;;;9.10;99.90;;;;;;5033911;28;20226;-70
2021/11/16 03:25:43;;;;;;;27.48;16.45;;;9.00;99.90;;;;;;5032974;28;20578;-69
2021/11/16 03:28:11;;;;;;;27.83;16.73;;;9.00;99.90;;;;;;5032718;28;20322;-71
2021/11/16 03:30:42;;;;;;;28.95;17.00;;;8.90;99.90;;;;;;5032553;28;20561;-71
2021/11/16 03:33:09;;;;;;;31.15;17.25;;;8.90;99.90;;;;;;5033830;28;20232;-71
2021/11/16 03:35:36;;;;;;;27.65;17.05;;;8.70;99.90;;;;;;5033184;28;20200;-71
2021/11/16 03:38:05;;;;;;;25.75;17.35;;;8.70;99.90;;;;;;5033711;28;20266;-71
2021/11/16 03:40:35;;;;;;;23.63;15.52;;;8.80;99.90;;;;;;5033389;28;20598;-71
2021/11/16 03:43:03;;;;;;;25.52;16.25;;;8.80;99.90;;;;;;5032947;28;20639;-71
2021/11/16 03:45:31;;;;;;;31.52;18.17;;;8.80;99.90;;;;;;5035403;28;20649;-70
2021/11/16 03:48:00;;;;;;;28.60;16.92;;;8.70;99.90;;;;;;5036794;28;20228;-70
2021/11/16 03:50:29;;;;;;;28.23;16.98;;;8.70;99.90;;;;;;5036833;28;20204;-71
2021/11/16 03:52:58;;;;;;;30.52;17.13;;;8.70;99.90;;;;;;5036654;28;20204;-71
2021/11/16 03:55:27;;;;;;;26.30;15.98;;;8.60;99.90;;;;;;5036303;28;20551;-71
2021/11/16 03:57:55;;;;;;;29.45;17.13;;;8.70;99.90;;;;;;5036526;28;20228;-70
2021/11/16 04:00:26;;;;;;;26.55;17.00;;;8.50;99.90;;;;;;5037053;28;20235;-70
2021/11/16 04:02:53;;;;;;;26.00;17.48;;;8.60;99.90;;;;;;5036343;28;20658;-71
2021/11/16 04:05:23;;;;;;;25.52;17.30;;;8.70;99.90;;;;;;5036201;28;20224;-71
2021/11/16 04:07:50;;;;;;;27.00;15.57;;;8.80;99.90;;;;;;5036440;28;20314;-71
2021/11/16 04:10:17;;;;;;;27.48;17.77;;;8.70;99.90;;;;;;5036305;28;20291;-70
2021/11/16 04:12:45;;;;;;;26.30;17.42;;;8.60;99.90;;;;;;5036130;28;20212;-70
2021/11/16 04:15:14;;;;;;;24.70;15.82;;;8.50;99.90;;;;;;5036135;28;20203;-71
2021/11/16 04:17:43;;;;;;;27.00;16.58;;;8.40;99.90;;;;;;5036412;28;20323;-71
2021/11/16 04:20:14;;;;;;;29.23;17.65;;;8.40;99.90;;;;;;5036452;28;20596;-71
2021/11/16 04:22:43;;;;;;;27.92;17.80;;;8.40;99.90;;;;;;5036449;28;20208;-71
2021/11/16 04:25:11;;;;;;;30.58;17.50;;;8.30;99.90;;;;;;5036320;28;20228;-71
2021/11/16 04:27:38;;;;;;;31.65;17.58;;;8.30;99.90;;;;;;5036681;28;20234;-70
2021/11/16 04:30:06;;;;;;;31.77;18.48;;;8.30;99.90;;;;;;5036174;28;20207;-71
2021/11/16 04:32:33;;;;;;;31.02;18.00;;;8.40;99.90;;;;;;5035925;28;20230;-71
2021/11/16 04:35:00;;;;;;;30.75;17.33;;;8.40;99.90;;;;;;5035689;28;20207;-71
2021/11/16 04:37:27;;;;;;;29.50;18.00;;;8.40;99.90;;;;;;5035823;28;20315;-71
2021/11/16 04:39:57;;;;;;;29.40;18.02;;;8.30;99.90;;;;;;5035784;28;20290;-71
2021/11/16 04:42:24;;;;;;;31.30;18.55;;;8.40;99.90;;;;;;5035796;28;20240;-71
2021/11/16 04:44:51;;;;;;;29.35;19.17;;;8.50;99.90;;;;;;5035405;28;20224;-71
2021/11/16 04:47:24;;;;;;;34.00;20.38;;;8.60;99.90;;;;;;5035361;28;20658;-72
2021/11/16 04:49:56;;;;;;;32.35;18.38;;;8.70;99.90;;;;;;5035689;28;20208;-71
2021/11/16 04:52:30;;;;;;;30.63;18.85;;;8.70;99.90;;;;;;5035671;28;20205;-71
2021/11/16 05:03:12;;;;;;;31.20;17.10;;;8.70;99.90;;;;;;5035386;28;20254;-70
2021/11/16 05:05:38;;;;;;;30.48;18.17;;;8.50;99.90;;;;;;5034934;28;20315;-71
2021/11/16 05:08:06;;;;;;;30.05;16.98;;;8.60;99.90;;;;;;5035115;28;20263;-71
2021/11/16 05:10:34;;;;;;;29.15;17.85;;;8.60;99.90;;;;;;5035225;28;20208;-71
2021/11/16 05:13:01;;;;;;;30.27;18.63;;;8.60;99.90;;;;;;5035193;28;20208;-71
2021/11/16 05:15:28;;;;;;;29.90;17.13;;;8.60;99.90;;;;;;5035140;28;20203;-71
2021/11/16 05:17:56;;;;;;;32.03;17.42;;;8.70;99.90;;;;;;5034945;28;20225;-70
2021/11/16 05:20:23;;;;;;;26.58;16.95;;;8.70;99.90;;;;;;5034818;28;20210;-71
2021/11/16 05:22:52;;;;;;;31.42;18.35;;;8.60;99.90;;;;;;5034912;28;20200;-71
2021/11/16 05:25:20;;;;;;;29.55;18.05;;;8.60;99.90;;;;;;5034482;28;20698;-70
2021/11/16 05:27:49;;;;;;;28.50;17.80;;;8.60;99.90;;;;;;5034982;28;20318;-70
2021/11/16 05:30:16;;;;;;;30.92;17.27;;;8.50;99.90;;;;;;5034861;28;20200;-71
2021/11/16 05:32:44;;;;;;;30.77;17.63;;;8.40;99.90;;;;;;5034970;28;20659;-70
2021/11/16 05:35:13;;;;;;;32.15;18.23;;;8.20;99.90;;;;;;5034434;28;20208;-71
2021/11/16 05:37:41;;;;;;;26.50;17.65;;;8.20;99.90;;;;;;5034615;28;20314;-70
2021/11/16 05:40:09;;;;;;;29.60;17.27;;;8.10;99.90;;;;;;5034708;28;20210;-70
2021/11/16 05:42:36;;;;;;;26.60;16.10;;;8.20;99.90;;;;;;5034683;28;20565;-70
2021/11/16 05:45:06;;;;;;;27.92;17.17;;;8.20;99.90;;;;;;5034460;28;20246;-71
2021/11/16 05:47:33;;;;;;;32.88;17.17;;;8.20;99.90;;;;;;5034487;28;20315;-71
2021/11/16 05:50:00;;;;;;;32.20;17.40;;;8.20;99.90;;;;;;5034309;28;20674;-71
2021/11/16 05:52:26;;;;;;;30.92;17.80;;;8.20;99.90;;;;;;5034218;28;20204;-71
2021/11/16 05:54:54;;;;;;;29.25;18.05;;;8.30;99.90;;;;;;5034410;28;20291;-71
2021/11/16 05:57:21;;;;;;;32.63;17.45;;;8.20;99.90;;;;;;5034413;28;20773;-70
2021/11/16 05:59:48;;;;;;;25.98;16.33;;;8.20;99.90;;;;;;5034202;28;20208;-71
2021/11/16 06:02:16;;;;;;;30.80;17.77;;;8.00;99.90;;;;;;5034425;28;20299;-71
2021/11/16 06:04:44;;;;;;;23.63;15.52;;;8.10;99.90;;;;;;5033782;28;20224;-70
2021/11/16 06:07:13;;;;;;;31.58;17.30;;;8.20;99.90;;;;;;5033399;28;20224;-71
2021/11/16 06:09:42;;;;;;;28.65;17.58;;;8.20;99.90;;;;;;5033862;28;20219;-70
2021/11/16 06:12:10;;;;;;;29.42;17.00;;;8.30;99.90;;;;;;5034152;28;20231;-71
2021/11/16 06:14:38;;;;;;;26.75;15.77;;;8.40;99.90;;;;;;5033861;28;20196;-71
2021/11/16 06:17:06;;;;;;;29.52;16.38;;;8.30;99.90;;;;;;5033721;28;20733;-71
2021/11/16 06:19:35;;;;;;;29.25;16.20;;;8.30;99.90;;;;;;5033864;28;20294;-70
2021/11/16 06:22:06;;;;;;;29.42;16.15;;;8.20;99.90;;;;;;5034140;28;20231;-70
2021/11/16 06:24:34;;;;;;;30.80;17.60;;;8.20;99.90;;;;;;5033900;28;20223;-70
2021/11/16 06:27:01;;;;;;;24.95;15.73;;;8.20;99.90;;;;;;5033857;28;20753;-71
2021/11/16 06:29:28;;;;;;;26.55;15.30;;;8.20;99.90;;;;;;5034060;28;20569;-71
2021/11/16 06:31:54;;;;;;;37.70;20.13;;;8.10;99.90;;;;;;5033644;28;20443;-71
2021/11/16 06:34:21;;;;;;;25.65;14.70;;;8.10;99.90;;;;;;5033684;28;20295;-72
2021/11/16 06:36:50;;;;;;;25.55;15.70;;;8.10;99.90;;;;;;5033878;28;20214;-70
2021/11/16 06:39:18;;;;;;;24.45;14.98;;;8.10;99.90;;;;;;5033870;28;20295;-71
2021/11/16 06:41:47;;;;;;;25.98;17.45;;;8.10;99.90;;;;;;5032561;28;20429;-71
2021/11/16 06:44:15;;;;;;;24.42;15.25;;;8.20;99.90;;;;;;5033539;28;20207;-70
2021/11/16 06:46:43;;;;;;;24.08;14.27;;;8.20;99.90;;;;;;5033122;28;20736;-70
2021/11/16 06:49:11;;;;;;;24.38;14.05;;;8.10;99.90;;;;;;5033632;28;20210;-70
2021/11/16 06:51:40;;;;;;;20.25;13.40;;;8.10;99.90;;;;;;5033550;28;20561;-70
2021/11/16 06:54:10;;;;;;;24.77;14.80;;;8.10;99.90;;;;;;5033515;28;20204;-71
2021/11/16 06:56:38;;;;;;;20.90;13.05;;;8.10;99.90;;;;;;5033277;28;20729;-70
2021/11/16 06:59:06;;;;;;;22.60;13.30;;;8.20;99.90;;;;;;5033124;28;20701;-70
2021/11/16 07:01:36;;;;;;;31.77;18.52;;;8.10;99.90;;;;;;5033308;28;20206;-70
2021/11/16 07:04:09;;;;;;;20.70;13.05;;;8.20;99.90;;;;;;5033525;28;20543;-70
2021/11/16 07:06:36;;;;;;;23.92;13.10;;;8.20;99.90;;;;;;5033199;28;20290;-70
2021/11/16 07:09:05;;;;;;;23.80;13.77;;;8.20;99.90;;;;;;5033321;28;20314;-71
2021/11/16 07:11:42;;;;;;;21.13;12.93;;;8.20;99.90;;;;;;5033692;28;20200;-71
2021/11/16 07:14:11;;;;;;;21.00;13.10;;;8.20;99.90;;;;;;5034221;28;20204;-71
2021/11/16 07:16:41;;;;;;;21.02;13.63;;;8.20;99.90;;;;;;5033435;28;20638;-71
2021/11/16 07:19:09;;;;;;;22.80;14.57;;;8.20;99.90;;;;;;5036118;28;20583;-71
2021/11/16 07:21:46;;;;;;;21.08;13.98;;;8.10;99.90;;;;;;5037279;28;20291;-71
2021/11/16 07:24:15;;;;;;;22.48;13.30;;;8.10;99.90;;;;;;5037268;28;20222;-71
2021/11/16 07:26:44;;;;;;;22.17;13.00;;;8.20;99.90;;;;;;5036908;28;20224;-71
2021/11/16 07:29:15;;;;;;;27.30;16.13;;;8.20;99.90;;;;;;5037150;28;20230;-71
2021/11/16 07:31:43;;;;;;;24.92;15.48;;;8.20;99.90;;;;;;5037301;28;20226;-71
2021/11/16 07:34:15;;;;;;;22.25;13.38;;;8.30;99.90;;;;;;5036688;28;20299;-70
2021/11/16 07:36:53;;;;;;;22.73;13.48;;;8.30;99.90;;;;;;5037163;28;20226;-70
2021/11/16 07:39:20;;;;;;;24.13;13.55;;;8.40;99.90;;;;;;5036706;28;20634;-71
2021/11/16 07:41:50;;;;;;;22.20;14.57;;;8.40;99.90;;;;;;5036647;28;20204;-71
2021/11/16 07:44:17;;;;;;;22.33;13.77;;;8.40;99.90;;;;;;5036850;28;20243;-70
2021/11/16 07:46:53;;;;;;;20.30;13.05;;;8.40;99.90;;;;;;5036430;28;20277;-70
2021/11/16 07:49:21;;;;;;;25.13;15.70;;;8.40;99.90;;;;;;5036812;28;20193;-71
2021/11/16 07:51:48;;;;;;;22.73;13.32;;;8.40;99.90;;;;;;5036679;28;20200;-71
2021/11/16 07:54:20;;;;;;;22.08;13.18;;;8.40;99.90;;;;;;5036930;28;20216;-71
2021/11/16 07:56:49;;;;;;;26.63;14.40;;;8.50;99.90;;;;;;5036481;28;20295;-71
2021/11/16 07:59:17;;;;;;;22.52;14.02;;;8.50;99.90;;;;;;5036552;28;20234;-71
2021/11/16 08:01:49;;;;;;;22.50;14.35;;;8.40;99.90;;;;;;5036290;28;20662;-71
2021/11/16 08:04:22;;;;;;;24.55;15.25;;;8.40;99.90;;;;;;5036515;28;20294;-70
2021/11/16 08:06:57;;;;;;;19.58;12.52;;;8.40;99.90;;;;;;5036287;28;20280;-71
2021/11/16 08:09:30;;;;;;;22.52;13.02;;;8.40;99.90;;;;;;5036485;28;20192;-71
2021/11/16 08:12:08;;;;;;;22.08;13.20;;;8.40;99.90;;;;;;5036360;28;20295;-71
2021/11/16 08:14:36;;;;;;;22.75;13.90;;;8.40;99.90;;;;;;5035937;28;20207;-71
2021/11/16 08:17:06;;;;;;;22.65;12.55;;;8.40;99.90;;;;;;5035985;28;20282;-70
2021/11/16 08:19:35;;;;;;;21.13;13.23;;;8.40;99.90;;;;;;5036976;28;20192;-70
2021/11/16 08:22:06;;;;;;;22.83;12.82;;;8.50;99.90;;;;;;5036043;28;20666;-71
2021/11/16 08:24:35;;;;;;;20.33;11.25;;;8.50;99.90;;;;;;5035972;28;20299;-70
2021/11/16 08:27:10;;;;;;;23.13;12.77;;;8.50;99.90;;;;;;5036001;28;20231;-71
2021/11/16 08:29:39;;;;;;;20.50;12.38;;;8.60;99.90;;;;;;5035306;28;20188;-71
2021/11/16 08:32:11;;;;;;;19.35;11.88;;;8.60;99.90;;;;;;5035724;28;20226;-71
2021/11/16 08:34:40;;;;;;;19.88;12.65;;;8.60;99.90;;;;;;5035697;28;20569;-71
2021/11/16 08:37:09;;;;;;;21.83;12.23;;;8.60;99.90;;;;;;5035728;28;20219;-71
2021/11/16 08:39:38;;;;;;;18.42;11.50;;;8.70;99.90;;;;;;5035908;28;20330;-71
2021/11/16 08:42:16;;;;;;;20.23;11.68;;;8.70;99.90;;;;;;5035790;28;20230;-71
2021/11/16 08:44:51;;;;;;;18.13;11.10;;;8.70;99.90;;;;;;5035580;28;20204;-71
2021/11/16 08:47:19;;;;;;;16.05;10.40;;;8.60;99.90;;;;;;5035626;28;20227;-71
2021/11/16 08:49:46;;;;;;;19.15;12.20;;;8.60;99.90;;;;;;5035583;28;20551;-71
2021/11/16 08:52:16;;;;;;;23.25;11.77;;;8.60;99.90;;;;;;5035881;28;20202;-71
2021/11/16 08:54:54;;;;;;;16.67;10.63;;;8.60;99.90;;;;;;5035297;28;20586;-71
2021/11/16 08:57:24;;;;;;;18.60;11.50;;;8.70;99.90;;;;;;5025910;28;20227;-72
2021/11/16 08:59:51;;;;;;;19.60;11.52;;;8.70;99.90;;;;;;5034470;28;20596;-72
2021/11/16 09:02:21;;;;;;;19.88;11.68;;;8.80;99.90;;;;;;5034204;28;20204;-72
2021/11/16 09:04:48;;;;;;;20.35;12.60;;;8.80;99.90;;;;;;5033975;28;20286;-71
2021/11/16 09:07:24;;;;;;;19.48;12.80;;;8.80;99.90;;;;;;5034535;28;20228;-71
2021/11/16 09:09:53;;;;;;;21.23;13.68;;;8.80;99.90;;;;;;5034840;28;20212;-71
2021/11/16 09:12:41;;;;;;;24.73;14.07;;;8.80;99.90;;;;;;5034918;28;20211;-71
2021/11/16 09:15:10;;;;;;;23.63;12.98;;;8.80;99.90;;;;;;5034125;28;20212;-71
2021/11/16 09:17:39;;;;;;;21.17;12.85;;;8.80;99.90;;;;;;5034685;28;20236;-71
2021/11/16 09:20:15;;;;;;;20.15;12.02;;;8.80;99.90;;;;;;5034576;28;20211;-72
2021/11/16 09:22:42;;;;;;;24.58;13.30;;;8.80;99.90;;;;;;5034346;28;20200;-72
2021/11/16 09:25:21;;;;;;;23.73;13.73;;;8.80;99.90;;;;;;5034040;28;20577;-71
2021/11/16 09:27:57;;;;;;;25.05;13.30;;;8.90;99.90;;;;;;5034238;28;20243;-71
2021/11/16 09:30:35;;;;;;;23.27;12.85;;;8.90;99.90;;;;;;5033725;28;20661;-71
2021/11/16 09:33:05;;;;;;;21.40;12.48;;;8.90;99.90;;;;;;5034413;28;20732;-72
2021/11/16 09:35:53;;;;;;;20.50;11.55;;;8.80;99.90;;;;;;5034191;28;20604;-71
2021/11/16 09:38:44;;;;;;;19.98;11.25;;;8.80;99.90;;;;;;5033461;28;20804;-71
2021/11/16 09:41:14;;;;;;;22.63;12.15;;;8.80;99.90;;;;;;5033320;28;20670;-71
2021/11/16 09:43:43;;;;;;;18.77;11.60;;;8.80;99.90;;;;;;5033508;28;20569;-72
2021/11/16 09:46:17;;;;;;;20.70;11.38;;;8.80;99.90;;;;;;5033613;28;20647;-72
2021/11/16 09:48:44;;;;;;;19.30;11.32;;;8.70;99.90;;;;;;5033514;28;20652;-72
2021/11/16 09:51:17;;;;;;;21.08;12.45;;;8.70;99.90;;;;;;5033760;28;20295;-72
2021/11/16 09:53:44;;;;;;;18.48;11.38;;;8.60;99.90;;;;;;5033763;28;20208;-71
2021/11/16 09:56:33;;;;;;;19.90;11.40;;;8.70;99.90;;;;;;5033658;28;20201;-71
2021/11/16 09:59:02;;;;;;;14.68;8.65;;;8.70;99.90;;;;;;5028775;28;20599;-72
2021/11/16 10:01:33;;;;;;;12.05;8.07;;;8.60;99.90;;;;;;5033432;28;20287;-71
2021/11/16 10:04:15;;;;;;;16.38;9.35;;;8.70;99.90;;;;;;5033258;28;20576;-73
2021/11/16 10:06:42;;;;;;;13.95;8.70;;;8.70;99.90;;;;;;5033026;28;20224;-72
2021/11/16 10:09:11;;;;;;;14.88;8.20;;;8.80;99.90;;;;;;5032901;28;20665;-72
2021/11/16 10:11:42;;;;;;;15.45;9.00;;;8.80;99.90;;;;;;5033456;28;20208;-71
2021/11/16 10:14:12;;;;;;;13.35;7.78;;;8.90;99.90;;;;;;5033324;28;20204;-72
2021/11/16 10:16:39;;;;;;;15.20;9.15;;;8.90;99.90;;;;;;5032662;28;20678;-72
2021/11/16 10:19:06;;;;;;;14.35;8.50;;;8.90;99.90;;;;;;5032831;28;20239;-72
2021/11/16 10:21:34;;;;;;;15.85;8.85;;;8.90;99.90;;;;;;5033366;28;20226;-72
2021/11/16 10:24:02;;;;;;;12.18;8.32;;;8.90;99.90;;;;;;5033161;28;20228;-72
2021/11/16 10:26:34;;;;;;;11.57;7.45;;;9.00;99.90;;;;;;5032569;28;20216;-72
2021/11/16 10:29:02;;;;;;;10.70;6.70;;;9.00;99.90;;;;;;5032285;28;20314;-71
2021/11/16 10:31:32;;;;;;;11.65;7.75;;;9.00;99.90;;;;;;5033098;28;20600;-71
2021/11/16 10:34:00;;;;;;;10.45;7.20;;;9.00;99.90;;;;;;5033268;28;20294;-72
2021/11/16 10:36:28;;;;;;;11.05;7.18;;;8.90;99.90;;;;;;5032726;28;20212;-72
2021/11/16 10:38:59;;;;;;;15.15;8.27;;;8.90;99.90;;;;;;5032428;28;20234;-71
2021/11/16 10:41:29;;;;;;;10.93;8.18;;;8.90;99.90;;;;;;5033083;28;20290;-72
2021/11/16 10:43:58;;;;;;;12.77;7.95;;;8.90;99.90;;;;;;5032776;28;20247;-72
2021/11/16 10:46:27;;;;;;;12.98;8.13;;;8.90;99.90;;;;;;5032695;28;20223;-72
2021/11/16 10:48:59;;;;;;;13.07;7.75;;;9.00;99.90;;;;;;5032612;28;20315;-72
2021/11/16 10:51:29;;;;;;;12.90;7.35;;;8.90;99.90;;;;;;5032859;28;20204;-72
2021/11/16 10:53:57;;;;;;;8.95;6.97;;;8.90;99.90;;;;;;5032599;28;20569;-72
2021/11/16 10:56:26;;;;;;;12.13;7.35;;;8.90;99.90;;;;;;5032327;28;20662;-72
2021/11/16 10:58:54;;;;;;;12.00;7.70;;;9.00;99.90;;;;;;5032242;28;20224;-72
2021/11/16 11:01:23;;;;;;;11.57;7.30;;;8.90;99.90;;;;;;5032658;28;20203;-72
2021/11/16 11:03:53;;;;;;;13.05;7.82;;;8.90;99.90;;;;;;5032817;28;20259;-72
2021/11/16 11:06:24;;;;;;;9.02;6.65;;;8.90;99.90;;;;;;5032280;28;20224;-73
2021/11/16 11:08:51;;;;;;;11.20;7.05;;;8.90;99.90;;;;;;5032153;28;20224;-72
2021/11/16 11:11:30;;;;;;;11.50;8.00;;;8.90;99.90;;;;;;5032738;28;20291;-72
2021/11/16 11:14:01;;;;;;;10.93;7.38;;;9.00;99.90;;;;;;5032590;28;20242;-72
2021/11/16 11:16:29;;;;;;;11.00;7.35;;;9.00;99.90;;;;;;5032357;28;20208;-72
2021/11/16 11:18:56;;;;;;;13.13;7.53;;;8.90;99.90;;;;;;5032223;28;20226;-72
2021/11/16 11:21:37;;;;;;;11.20;7.20;;;8.90;99.90;;;;;;5032500;28;20208;-71
2021/11/16 11:24:11;;;;;;;12.20;7.65;;;8.80;99.90;;;;;;5032533;28;20301;-72
2021/11/16 11:26:41;;;;;;;11.52;6.72;;;8.80;99.90;;;;;;5032251;28;20228;-71
2021/11/16 11:29:24;;;;;;;9.10;6.40;;;8.80;99.90;;;;;;5032096;28;20228;-71
2021/11/16 11:31:57;;;;;;;12.57;6.93;;;8.90;99.90;;;;;;5032467;28;20200;-72
2021/11/16 11:34:32;;;;;;;12.23;7.63;;;8.90;99.90;;;;;;5032014;28;20294;-72
2021/11/16 11:37:06;;;;;;;10.18;6.85;;;8.80;99.90;;;;;;5031885;28;20245;-73
2021/11/16 11:39:33;;;;;;;14.52;7.18;;;8.90;99.90;;;;;;5031964;28;20204;-72
2021/11/16 11:42:01;;;;;;;9.27;7.15;;;9.00;99.90;;;;;;5031986;28;20291;-72
2021/11/16 11:44:37;;;;;;;12.35;8.02;;;9.00;99.90;;;;;;5032019;28;20204;-72
2021/11/16 11:47:04;;;;;;;11.23;7.47;;;8.80;99.90;;;;;;5032083;28;20595;-72
2021/11/16 11:49:32;;;;;;;12.02;6.80;;;8.80;99.90;;;;;;5032117;28;20201;-71
2021/11/16 11:52:05;;;;;;;14.13;8.13;;;8.70;99.90;;;;;;5031935;28;20219;-71
2021/11/16 11:54:32;;;;;;;9.73;6.97;;;8.80;99.90;;;;;;5031766;28;20251;-70
2021/11/16 11:56:59;;;;;;;12.75;8.30;;;8.90;99.90;;;;;;5031665;28;20733;-73
2021/11/16 11:59:27;;;;;;;15.52;7.57;;;8.90;99.90;;;;;;5032217;28;20241;-72
2021/11/16 12:01:55;;;;;;;13.77;7.72;;;8.90;99.90;;;;;;5032426;28;20205;-71
2021/11/16 12:04:22;;;;;;;11.52;7.60;;;8.90;99.90;;;;;;5032200;28;20208;-72
2021/11/16 12:06:51;;;;;;;10.45;7.00;;;8.80;99.90;;;;;;5035120;28;20224;-72
2021/11/16 12:09:20;;;;;;;13.73;8.80;;;8.80;99.90;;;;;;5035838;28;20208;-72
2021/11/16 12:11:47;;;;;;;11.65;7.55;;;8.80;99.90;;;;;;5036244;28;20247;-72
2021/11/16 12:14:35;;;;;;;10.65;7.18;;;8.80;99.90;;;;;;5036256;28;20737;-72
2021/11/16 12:17:07;;;;;;;9.40;6.40;;;8.80;99.90;;;;;;5035160;28;20671;-72
2021/11/16 12:19:48;;;;;;;10.57;6.93;;;8.90;99.90;;;;;;5035230;28;20204;-72
2021/11/16 12:22:21;;;;;;;9.15;5.75;;;8.90;99.90;;;;;;5035028;28;20601;-71
2021/11/16 12:24:50;;;;;;;11.40;6.30;;;8.90;99.90;;;;;;5034887;28;20211;-71
2021/11/16 12:27:19;;;;;;;10.45;6.90;;;8.90;99.90;;;;;;5034600;28;20698;-71
2021/11/16 12:29:49;;;;;;;9.55;5.55;;;8.80;99.90;;;;;;5035374;28;20295;-71
2021/11/16 12:32:20;;;;;;;9.38;5.97;;;8.80;99.90;;;;;;5034862;28;20204;-71
2021/11/16 12:34:50;;;;;;;7.82;5.35;;;8.90;99.90;;;;;;5034773;28;20227;-71
2021/11/16 12:37:39;;;;;;;8.20;5.88;;;9.00;99.90;;;;;;5034809;28;20278;-72
2021/11/16 12:40:15;;;;;;;9.63;5.93;;;9.00;99.90;;;;;;5034967;28;20208;-72
2021/11/16 12:43:14;;;;;;;7.13;5.47;;;9.00;99.90;;;;;;5035229;28;20196;-72
2021/11/16 12:45:44;;;;;;;9.25;6.05;;;9.10;99.90;;;;;;5034803;28;20203;-71
2021/11/16 12:48:13;;;;;;;8.65;5.88;;;9.10;99.90;;;;;;5034442;28;20247;-71
2021/11/16 12:50:40;;;;;;;8.38;5.60;;;9.10;99.90;;;;;;5034665;28;20208;-71
2021/11/16 12:53:07;;;;;;;7.82;5.60;;;9.20;99.90;;;;;;5035097;28;20246;-71
2021/11/16 12:55:36;;;;;;;8.15;5.88;;;9.20;99.90;;;;;;5034938;28;20619;-71
2021/11/16 12:58:26;;;;;;;9.02;5.82;;;9.30;99.90;;;;;;5034402;28;20306;-71
2021/11/16 13:00:53;;;;;;;8.00;5.32;;;9.30;99.90;;;;;;5034593;28;20295;-71